Time;durP1;ratioP1;P1;durP2;ratioP2;P2;SDS_P1;SDS_P2;PMS_P1;PMS_P2;Temp;Humidity;BMP_temperature;BMP_pressure;BME280_temperature;BME280_humidity;BME280_pressure;Samples;Min_cycle;Max_cycle;Signal;HPM_P1;HPM_P2
2022/05/10 00:01:49;;;;;;;14.65;7.30;;;;;;;;;;5007234;28;20519;-68
2022/05/10 00:04:14;;;;;;;15.07;7.47;;;;;;;;;;5007272;28;20038;-68
2022/05/10 00:06:44;;;;;;;12.60;7.38;;;;;;;;;;5004624;28;20038;-68
2022/05/10 00:09:10;;;;;;;13.68;7.40;;;;;;;;;;5007132;28;20057;-68
2022/05/10 00:11:36;;;;;;;13.20;7.00;;;;;;;;;;5008269;28;20038;-68
2022/05/10 00:14:01;;;;;;;13.50;6.88;;;;;;;;;;5005926;28;20112;-68
2022/05/10 00:16:27;;;;;;;10.45;6.82;;;;;;;;;;5008370;28;20087;-68
2022/05/10 00:18:52;;;;;;;13.80;7.32;;;;;;;;;;5008432;28;20578;-68
2022/05/10 00:21:24;;;;;;;12.82;7.72;;;;;;;;;;5008405;28;20091;-68
2022/05/10 00:23:49;;;;;;;12.68;6.78;;;;;;;;;;5004820;28;20029;-68
2022/05/10 00:26:15;;;;;;;12.35;7.32;;;;;;;;;;4998882;28;20549;-68
2022/05/10 00:28:40;;;;;;;12.80;7.30;;;;;;;;;;5007773;28;20720;-68
2022/05/10 00:31:08;;;;;;;12.60;7.35;;;;;;;;;;5007243;28;20038;-68
2022/05/10 00:33:33;;;;;;;12.90;7.00;;;;;;;;;;5004261;28;20038;-68
2022/05/10 00:35:59;;;;;;;15.93;7.63;;;;;;;;;;5007926;28;20075;-68
2022/05/10 00:38:30;;;;;;;14.60;7.80;;;;;;;;;;5008326;28;20423;-68
2022/05/10 00:41:04;;;;;;;13.48;7.55;;;;;;;;;;5007518;28;20454;-68
2022/05/10 00:43:38;;;;;;;15.63;8.60;;;;;;;;;;5007740;28;20053;-68
2022/05/10 00:46:11;;;;;;;12.57;7.78;;;;;;;;;;5006693;28;20037;-68
2022/05/10 00:48:45;;;;;;;13.80;7.85;;;;;;;;;;5001854;28;20030;-68
2022/05/10 00:51:47;;;;;;;14.32;7.65;;;;;;;;;;4996326;28;20117;-68
2022/05/10 00:54:26;;;;;;;15.18;7.03;;;;;;;;;;5003485;28;20038;-68
2022/05/10 00:57:12;;;;;;;13.75;7.40;;;;;;;;;;5005643;28;20883;-68
2022/05/10 00:59:53;;;;;;;14.45;7.03;;;;;;;;;;5008086;28;20025;-68
2022/05/10 01:02:42;;;;;;;26.00;8.43;;;;;;;;;;5004328;28;20038;-68
2022/05/10 01:05:11;;;;;;;13.13;7.70;;;;;;;;;;5007709;28;20140;-68
2022/05/10 01:07:49;;;;;;;13.60;7.38;;;;;;;;;;5007431;28;20586;-68
2022/05/10 01:10:55;;;;;;;14.95;8.20;;;;;;;;;;4992745;28;20125;-68
2022/05/10 01:13:36;;;;;;;16.80;8.00;;;;;;;;;;4993341;28;20069;-68
2022/05/10 01:16:06;;;;;;;16.67;8.32;;;;;;;;;;5001112;28;20057;-68
2022/05/10 01:18:32;;;;;;;18.23;8.65;;;;;;;;;;5007085;28;20061;-68
2022/05/10 01:21:08;;;;;;;14.30;7.85;;;;;;;;;;5006987;28;20018;-68
2022/05/10 01:23:42;;;;;;;13.80;8.00;;;;;;;;;;4999145;28;20038;-68
2022/05/10 01:26:19;;;;;;;18.00;8.27;;;;;;;;;;4993330;28;20494;-68
2022/05/10 01:28:50;;;;;;;17.58;8.63;;;;;;;;;;5006922;28;20042;-68
2022/05/10 01:31:21;;;;;;;15.52;8.73;;;;;;;;;;5005671;28;20427;-68
2022/05/10 01:33:52;;;;;;;16.58;8.13;;;;;;;;;;5001613;28;20104;-68
2022/05/10 01:36:38;;;;;;;13.40;8.07;;;;;;;;;;5024267;28;20038;-68
2022/05/10 01:39:41;;;;;;;14.25;8.48;;;;;;;;;;4998756;28;20504;-68
2022/05/10 01:42:13;;;;;;;14.65;8.48;;;;;;;;;;5010539;28;20982;-68
2022/05/10 01:45:00;;;;;;;15.52;8.55;;;;;;;;;;5011347;28;20037;-68
2022/05/10 01:47:33;;;;;;;12.40;8.30;;;;;;;;;;5010589;28;20103;-68
2022/05/10 01:50:17;;;;;;;14.95;8.88;;;;;;;;;;5010532;28;20041;-68
2022/05/10 01:52:54;;;;;;;16.58;8.98;;;;;;;;;;5006535;28;20064;-68
2022/05/10 01:55:32;;;;;;;14.63;9.07;;;;;;;;;;5004886;28;20048;-68
2022/05/10 01:58:08;;;;;;;16.90;9.23;;;;;;;;;;5009108;28;20050;-68
2022/05/10 02:00:36;;;;;;;20.13;9.40;;;;;;;;;;5007635;28;20519;-67
2022/05/10 02:03:10;;;;;;;18.10;9.93;;;;;;;;;;5008216;28;20033;-68
2022/05/10 02:05:54;;;;;;;17.40;9.13;;;;;;;;;;5010635;28;20510;-68
2022/05/10 02:08:34;;;;;;;21.90;8.98;;;;;;;;;;5010045;28;20563;-68
2022/05/10 02:11:07;;;;;;;15.77;9.82;;;;;;;;;;5008243;28;20511;-68
2022/05/10 02:13:39;;;;;;;18.42;9.73;;;;;;;;;;5010737;28;20565;-68
2022/05/10 02:16:40;;;;;;;17.10;9.90;;;;;;;;;;5007227;28;20040;-68
2022/05/10 02:19:24;;;;;;;20.08;9.55;;;;;;;;;;5007877;28;20042;-68
2022/05/10 02:21:59;;;;;;;17.45;9.60;;;;;;;;;;5009484;28;20613;-67
2022/05/10 02:24:43;;;;;;;17.20;9.90;;;;;;;;;;4999900;28;20077;-68
2022/05/10 02:27:24;;;;;;;15.98;9.65;;;;;;;;;;5005881;28;20064;-68
2022/05/10 02:30:01;;;;;;;18.25;9.50;;;;;;;;;;5018139;28;20033;-68
2022/05/10 02:35:18;;;;;;;18.52;10.52;;;;;;;;;;5002389;28;20092;-67
2022/05/10 02:37:43;;;;;;;16.30;10.93;;;;;;;;;;4990887;28;20130;-68
2022/05/10 02:40:09;;;;;;;18.55;10.60;;;;;;;;;;4990585;28;20041;-68
2022/05/10 02:42:35;;;;;;;17.77;10.65;;;;;;;;;;5002434;28;20046;-68
2022/05/10 02:45:03;;;;;;;17.52;10.35;;;;;;;;;;5009391;28;20030;-68
2022/05/10 02:47:33;;;;;;;15.55;10.32;;;;;;;;;;4998716;28;20040;-68
2022/05/10 02:49:59;;;;;;;22.15;10.23;;;;;;;;;;5008353;28;20566;-68
2022/05/10 02:52:24;;;;;;;19.52;9.88;;;;;;;;;;5002733;28;20030;-68
2022/05/10 02:54:54;;;;;;;18.15;9.85;;;;;;;;;;5008440;28;20049;-68
2022/05/10 02:57:21;;;;;;;22.55;10.40;;;;;;;;;;5002490;28;20141;-68
2022/05/10 02:59:46;;;;;;;19.90;10.48;;;;;;;;;;5004008;28;20857;-67
2022/05/10 03:02:22;;;;;;;16.73;10.27;;;;;;;;;;5007360;28;20101;-68
2022/05/10 03:04:53;;;;;;;20.25;10.35;;;;;;;;;;5009618;28;20529;-68
2022/05/10 03:07:18;;;;;;;20.65;9.40;;;;;;;;;;5005374;28;20067;-68
2022/05/10 03:09:44;;;;;;;20.25;10.15;;;;;;;;;;5002399;28;20045;-68
2022/05/10 03:12:09;;;;;;;21.27;10.35;;;;;;;;;;5008924;28;20034;-68
2022/05/10 03:14:35;;;;;;;18.30;10.07;;;;;;;;;;5009845;28;20042;-68
2022/05/10 03:17:00;;;;;;;16.90;10.80;;;;;;;;;;5004016;28;20089;-68
2022/05/10 03:19:26;;;;;;;16.80;10.30;;;;;;;;;;5002612;28;20030;-68
2022/05/10 03:21:51;;;;;;;19.73;12.23;;;;;;;;;;5002654;28;20428;-67
2022/05/10 03:24:16;;;;;;;19.88;12.00;;;;;;;;;;5002010;28;20090;-68
2022/05/10 03:26:52;;;;;;;26.52;11.55;;;;;;;;;;5003466;28;20046;-68
2022/05/10 03:29:19;;;;;;;22.85;11.70;;;;;;;;;;5008964;28;20117;-68
2022/05/10 03:31:44;;;;;;;19.20;10.88;;;;;;;;;;5021685;28;20486;-68
2022/05/10 03:36:54;;;;;;;17.92;10.90;;;;;;;;;;5008907;28;20045;-68
2022/05/10 03:39:20;;;;;;;23.05;11.50;;;;;;;;;;5008743;28;20049;-67
2022/05/10 03:41:45;;;;;;;18.85;10.90;;;;;;;;;;5006570;28;20024;-67
2022/05/10 03:44:10;;;;;;;20.30;11.82;;;;;;;;;;5008615;28;20091;-68
2022/05/10 03:46:36;;;;;;;23.17;11.65;;;;;;;;;;5008341;28;20419;-68
2022/05/10 03:49:02;;;;;;;22.92;11.40;;;;;;;;;;5005876;28;20108;-68
2022/05/10 03:51:28;;;;;;;23.30;11.43;;;;;;;;;;5006453;28;20058;-68
2022/05/10 03:53:54;;;;;;;20.90;11.75;;;;;;;;;;5005701;28;20419;-68
2022/05/10 03:56:19;;;;;;;24.15;11.65;;;;;;;;;;5007331;28;20022;-68
2022/05/10 03:58:44;;;;;;;20.02;10.65;;;;;;;;;;5004584;28;20034;-68
2022/05/10 04:01:10;;;;;;;19.10;11.75;;;;;;;;;;5007900;28;20054;-68
2022/05/10 04:03:36;;;;;;;16.55;10.45;;;;;;;;;;5003273;28;20033;-68
2022/05/10 04:06:02;;;;;;;24.65;12.43;;;;;;;;;;5005902;28;20059;-68
2022/05/10 04:08:27;;;;;;;18.80;11.23;;;;;;;;;;5007505;28;20080;-68
2022/05/10 04:10:53;;;;;;;19.50;11.32;;;;;;;;;;5005221;28;20046;-67
2022/05/10 04:13:18;;;;;;;19.48;11.25;;;;;;;;;;5006171;28;20034;-68
2022/05/10 04:15:43;;;;;;;17.73;11.52;;;;;;;;;;4997628;28;20111;-68
2022/05/10 04:18:09;;;;;;;19.42;12.15;;;;;;;;;;5003173;28;20030;-68
2022/05/10 04:20:34;;;;;;;17.73;11.20;;;;;;;;;;5015810;28;20514;-68
2022/05/10 04:23:00;;;;;;;17.80;11.13;;;;;;;;;;5004575;28;20664;-68
2022/05/10 04:25:25;;;;;;;17.05;10.85;;;;;;;;;;5000806;28;20566;-68
2022/05/10 04:27:54;;;;;;;17.40;10.93;;;;;;;;;;5007645;28;20069;-68
2022/05/10 04:30:21;;;;;;;20.52;11.27;;;;;;;;;;5007879;28;20133;-68
2022/05/10 04:32:46;;;;;;;16.52;10.80;;;;;;;;;;5003389;28;20029;-68
2022/05/10 04:35:12;;;;;;;20.67;11.18;;;;;;;;;;5008467;28;20029;-69
2022/05/10 04:37:38;;;;;;;19.95;11.05;;;;;;;;;;5007353;28;20030;-68
2022/05/10 04:42:50;;;;;;;17.23;11.30;;;;;;;;;;4996611;28;20113;-68
2022/05/10 04:45:15;;;;;;;18.92;11.10;;;;;;;;;;5006235;28;20037;-68
2022/05/10 04:47:41;;;;;;;21.48;10.93;;;;;;;;;;5007925;28;20088;-68
2022/05/10 04:50:07;;;;;;;17.48;11.38;;;;;;;;;;5007048;28;20053;-68
2022/05/10 04:52:33;;;;;;;20.42;10.95;;;;;;;;;;4997750;28;20132;-68
2022/05/10 04:54:58;;;;;;;18.92;11.43;;;;;;;;;;5005262;28;20125;-68
2022/05/10 04:57:24;;;;;;;20.20;11.25;;;;;;;;;;5017997;28;20144;-69
2022/05/10 04:59:49;;;;;;;20.55;11.30;;;;;;;;;;5006342;28;20038;-69
2022/05/10 05:02:14;;;;;;;17.33;11.30;;;;;;;;;;5004383;28;20034;-68
2022/05/10 05:04:39;;;;;;;18.42;10.93;;;;;;;;;;5003140;28;20083;-69
2022/05/10 05:07:05;;;;;;;19.63;11.52;;;;;;;;;;5007286;28;20529;-69
2022/05/10 05:09:31;;;;;;;16.98;10.57;;;;;;;;;;5006221;28;20046;-69
2022/05/10 05:11:57;;;;;;;17.77;11.48;;;;;;;;;;5004655;28;20049;-68
2022/05/10 05:14:23;;;;;;;24.13;11.65;;;;;;;;;;5004171;28;20034;-69
2022/05/10 05:16:48;;;;;;;17.73;11.80;;;;;;;;;;4998497;28;20100;-69
2022/05/10 05:19:14;;;;;;;16.70;11.35;;;;;;;;;;5002029;28;20510;-69
2022/05/10 05:21:39;;;;;;;18.85;11.85;;;;;;;;;;4999298;28;20053;-69
2022/05/10 05:24:05;;;;;;;17.67;12.02;;;;;;;;;;5006313;28;20518;-69
2022/05/10 05:26:30;;;;;;;18.25;11.90;;;;;;;;;;5002132;28;20079;-69
2022/05/10 05:28:56;;;;;;;18.00;11.10;;;;;;;;;;5005951;28;20383;-69
2022/05/10 05:31:21;;;;;;;18.13;12.50;;;;;;;;;;4999769;28;20148;-69
2022/05/10 05:33:46;;;;;;;16.90;11.68;;;;;;;;;;5006606;28;20183;-70
2022/05/10 05:36:12;;;;;;;18.98;11.35;;;;;;;;;;5009719;28;20459;-69
2022/05/10 05:38:37;;;;;;;14.18;10.80;;;;;;;;;;5010913;28;20075;-69
2022/05/10 05:41:02;;;;;;;17.33;10.93;;;;;;;;;;5002215;28;20412;-68
2022/05/10 05:43:28;;;;;;;17.83;11.38;;;;;;;;;;5004724;28;20049;-69
2022/05/10 05:45:53;;;;;;;17.75;11.38;;;;;;;;;;4997047;28;20096;-69
2022/05/10 05:48:20;;;;;;;16.25;10.73;;;;;;;;;;5006946;28;20073;-69
2022/05/10 05:50:46;;;;;;;16.25;11.25;;;;;;;;;;5002648;28;20117;-69
2022/05/10 05:53:12;;;;;;;18.38;10.60;;;;;;;;;;5009745;28;20502;-70
2022/05/10 05:55:38;;;;;;;18.25;11.05;;;;;;;;;;5010150;28;20061;-70
2022/05/10 05:58:03;;;;;;;16.55;11.18;;;;;;;;;;5010231;28;20044;-70
2022/05/10 06:00:29;;;;;;;15.43;11.15;;;;;;;;;;5004493;28;20042;-70
2022/05/10 06:02:55;;;;;;;16.67;10.57;;;;;;;;;;5006171;28;20025;-70
2022/05/10 06:05:23;;;;;;;18.33;11.30;;;;;;;;;;5025710;28;20052;-70
2022/05/10 06:07:48;;;;;;;16.98;11.20;;;;;;;;;;5002481;28;20041;-69
2022/05/10 06:10:14;;;;;;;15.52;10.32;;;;;;;;;;5009035;28;20049;-70
2022/05/10 06:12:40;;;;;;;18.50;11.80;;;;;;;;;;4999028;28;20034;-70
2022/05/10 06:15:11;;;;;;;16.35;10.43;;;;;;;;;;5010034;28;20049;-70
2022/05/10 06:17:38;;;;;;;13.07;10.43;;;;;;;;;;5010642;28;20036;-69
2022/05/10 06:20:06;;;;;;;17.70;10.63;;;;;;;;;;5021851;28;20049;-69
2022/05/10 06:22:33;;;;;;;15.80;10.65;;;;;;;;;;5009422;28;20124;-70
2022/05/10 06:24:58;;;;;;;16.33;10.55;;;;;;;;;;5009032;28;20053;-70
2022/05/10 06:27:23;;;;;;;15.30;10.73;;;;;;;;;;5009346;28;20050;-69
2022/05/10 06:29:49;;;;;;;14.80;10.77;;;;;;;;;;5001574;28;20660;-69
2022/05/10 06:32:23;;;;;;;16.70;10.45;;;;;;;;;;4992009;28;20416;-70
2022/05/10 06:34:52;;;;;;;16.63;10.25;;;;;;;;;;4996725;28;20050;-70
2022/05/10 06:40:14;;;;;;;14.07;10.30;;;;;;;;;;5004692;28;20116;-70
2022/05/10 06:42:40;;;;;;;16.17;10.18;;;;;;;;;;5008709;28;20119;-70
2022/05/10 06:45:09;;;;;;;14.65;10.43;;;;;;;;;;5008679;28;20085;-69
2022/05/10 06:47:37;;;;;;;15.88;10.40;;;;;;;;;;5009460;28;20029;-70
2022/05/10 06:50:04;;;;;;;14.45;9.57;;;;;;;;;;5000703;28;20089;-69
2022/05/10 06:52:29;;;;;;;15.57;10.20;;;;;;;;;;5008851;28;20144;-70
2022/05/10 06:54:56;;;;;;;12.52;9.55;;;;;;;;;;5004012;28;20153;-69
2022/05/10 06:57:21;;;;;;;14.98;9.93;;;;;;;;;;4998086;28;20056;-70
2022/05/10 06:59:46;;;;;;;16.30;9.70;;;;;;;;;;5001776;28;20021;-69
2022/05/10 07:02:12;;;;;;;14.32;9.55;;;;;;;;;;5009000;28;20030;-70
2022/05/10 07:04:37;;;;;;;15.18;9.65;;;;;;;;;;4995701;28;20046;-70
2022/05/10 07:07:03;;;;;;;11.98;8.60;;;;;;;;;;5000616;28;20049;-70
2022/05/10 07:09:28;;;;;;;12.65;8.82;;;;;;;;;;5008894;28;20050;-70
2022/05/10 07:11:53;;;;;;;12.88;9.07;;;;;;;;;;5005563;28;20137;-70
2022/05/10 07:14:20;;;;;;;12.70;8.95;;;;;;;;;;5009386;28;20083;-70
2022/05/10 07:16:45;;;;;;;12.98;9.13;;;;;;;;;;5008436;28;20616;-70
2022/05/10 07:19:11;;;;;;;14.30;8.95;;;;;;;;;;5023995;28;20061;-69
2022/05/10 07:21:36;;;;;;;14.15;8.77;;;;;;;;;;5008757;28;20069;-70
2022/05/10 07:24:01;;;;;;;14.90;9.55;;;;;;;;;;5008439;28;20380;-70
2022/05/10 07:26:27;;;;;;;11.05;8.90;;;;;;;;;;4994713;28;20039;-69
2022/05/10 07:28:52;;;;;;;14.27;9.15;;;;;;;;;;4994442;28;20495;-70
2022/05/10 07:31:17;;;;;;;12.25;8.48;;;;;;;;;;5007952;28;20041;-70
2022/05/10 07:33:43;;;;;;;12.05;8.48;;;;;;;;;;5003063;28;20049;-70
2022/05/10 07:36:28;;;;;;;13.15;8.43;;;;;;;;;;5004245;28;20042;-70
2022/05/10 07:38:54;;;;;;;20.77;9.05;;;;;;;;;;5003384;28;20044;-70
2022/05/10 07:41:23;;;;;;;11.93;8.82;;;;;;;;;;5008271;28;20060;-70
2022/05/10 07:43:50;;;;;;;11.48;8.32;;;;;;;;;;5006107;28;20541;-70
2022/05/10 07:46:16;;;;;;;11.63;7.88;;;;;;;;;;5007790;28;20065;-70
2022/05/10 07:48:43;;;;;;;9.40;7.78;;;;;;;;;;5004369;28;20425;-69
2022/05/10 07:51:08;;;;;;;11.10;7.88;;;;;;;;;;5003103;28;20499;-70
2022/05/10 07:53:35;;;;;;;11.63;8.00;;;;;;;;;;5004783;28;20037;-70
2022/05/10 07:56:02;;;;;;;8.63;7.72;;;;;;;;;;4987850;28;20074;-71
2022/05/10 07:58:27;;;;;;;12.02;7.53;;;;;;;;;;4996368;28;20045;-70
2022/05/10 08:00:53;;;;;;;11.32;7.70;;;;;;;;;;4991432;28;20530;-71
2022/05/10 08:03:21;;;;;;;8.73;7.03;;;;;;;;;;4998907;28;20414;-71
2022/05/10 08:05:46;;;;;;;10.43;7.57;;;;;;;;;;5001178;28;20033;-71
2022/05/10 08:08:13;;;;;;;14.15;7.78;;;;;;;;;;4996938;28;20036;-69
2022/05/10 08:10:42;;;;;;;10.00;7.13;;;;;;;;;;4995100;28;20105;-70
2022/05/10 08:13:12;;;;;;;9.40;6.80;;;;;;;;;;5014713;28;20034;-70
2022/05/10 08:15:38;;;;;;;7.72;6.70;;;;;;;;;;5007414;28;20776;-71
2022/05/10 08:18:05;;;;;;;9.10;7.25;;;;;;;;;;5008050;28;20045;-70
2022/05/10 08:20:31;;;;;;;11.30;7.47;;;;;;;;;;4994874;28;20487;-70
2022/05/10 08:22:56;;;;;;;11.25;7.47;;;;;;;;;;5001581;28;20144;-70
2022/05/10 08:25:22;;;;;;;7.75;6.95;;;;;;;;;;4992256;28;20038;-70
2022/05/10 08:27:47;;;;;;;10.77;7.05;;;;;;;;;;4998256;28;20173;-70
2022/05/10 08:30:13;;;;;;;26.52;8.00;;;;;;;;;;5001355;28;20145;-70
2022/05/10 08:32:39;;;;;;;10.65;7.07;;;;;;;;;;5000732;28;20124;-70
2022/05/10 08:35:05;;;;;;;7.10;6.03;;;;;;;;;;5006446;28;20040;-71
2022/05/10 08:37:32;;;;;;;13.30;7.40;;;;;;;;;;4992504;28;20038;-70
2022/05/10 08:39:58;;;;;;;9.82;7.25;;;;;;;;;;4993273;28;20426;-71
2022/05/10 08:42:28;;;;;;;9.27;6.75;;;;;;;;;;5007663;28;20522;-71
2022/05/10 08:44:59;;;;;;;9.85;7.55;;;;;;;;;;5006423;28;20025;-70
2022/05/10 08:47:26;;;;;;;11.38;7.88;;;;;;;;;;5006753;28;20069;-71
2022/05/10 08:49:57;;;;;;;10.57;7.00;;;;;;;;;;5007132;28;20041;-70
2022/05/10 08:52:28;;;;;;;10.85;7.20;;;;;;;;;;5007248;28;20602;-71
2022/05/10 08:54:53;;;;;;;10.63;6.72;;;;;;;;;;5006849;28;20042;-71
2022/05/10 08:57:35;;;;;;;8.85;7.35;;;;;;;;;;5007272;28;20427;-71
2022/05/10 09:00:25;;;;;;;10.85;7.72;;;;;;;;;;5002324;28;20030;-71
2022/05/10 09:02:56;;;;;;;9.52;7.63;;;;;;;;;;4995115;28;20466;-70
2022/05/10 09:05:38;;;;;;;9.35;7.47;;;;;;;;;;5007735;28;20034;-71
2022/05/10 09:08:45;;;;;;;11.15;7.78;;;;;;;;;;5006721;28;20042;-70
2022/05/10 09:11:14;;;;;;;10.95;7.78;;;;;;;;;;5005401;28;20052;-71
2022/05/10 09:13:41;;;;;;;14.48;7.45;;;;;;;;;;4988088;28;20080;-71
2022/05/10 09:16:12;;;;;;;14.43;7.53;;;;;;;;;;4999853;28;20541;-70
2022/05/10 09:18:49;;;;;;;13.80;7.22;;;;;;;;;;5006909;28;20048;-71
2022/05/10 09:21:26;;;;;;;8.63;7.50;;;;;;;;;;5005232;28;20045;-71
2022/05/10 09:24:15;;;;;;;13.85;10.65;;;;;;;;;;5007140;28;20117;-70
2022/05/10 09:26:45;;;;;;;10.45;8.10;;;;;;;;;;5006823;28;20068;-70
2022/05/10 09:29:10;;;;;;;11.45;7.63;;;;;;;;;;4987390;28;20047;-71
2022/05/10 09:37:31;;;;;;;10.27;7.88;;;;;;;;;;5004270;28;20045;-70
2022/05/10 09:39:57;;;;;;;11.40;8.25;;;;;;;;;;5005538;28;20061;-72
2022/05/10 09:42:35;;;;;;;12.32;8.25;;;;;;;;;;5004304;28;20219;-72
2022/05/10 09:45:10;;;;;;;10.30;8.77;;;;;;;;;;5003778;28;20038;-72
2022/05/10 09:47:36;;;;;;;10.07;8.57;;;;;;;;;;5007446;28;20034;-72
2022/05/10 09:50:27;;;;;;;13.18;9.02;;;;;;;;;;5009673;28;20062;-72
2022/05/10 09:53:07;;;;;;;13.45;8.52;;;;;;;;;;4987445;28;20050;-70
2022/05/10 09:55:32;;;;;;;11.20;8.27;;;;;;;;;;5003980;28;20537;-75
2022/05/10 09:58:18;;;;;;;11.95;8.35;;;;;;;;;;5001077;28;20582;-74
2022/05/10 10:00:55;;;;;;;15.45;8.93;;;;;;;;;;5003647;28;20125;-73
2022/05/10 10:03:41;;;;;;;13.48;8.80;;;;;;;;;;5004341;28;20038;-73
2022/05/10 10:06:19;;;;;;;12.75;9.13;;;;;;;;;;5005732;28;20131;-74
2022/05/10 10:08:55;;;;;;;12.10;9.23;;;;;;;;;;5008773;28;20042;-73
2022/05/10 10:11:21;;;;;;;11.85;8.50;;;;;;;;;;5006502;28;20049;-74
2022/05/10 10:13:50;;;;;;;13.20;8.77;;;;;;;;;;4999437;28;20046;-70
2022/05/10 10:16:24;;;;;;;13.50;8.55;;;;;;;;;;4999323;28;20519;-70
2022/05/10 10:18:53;;;;;;;11.30;8.68;;;;;;;;;;5023515;28;20052;-70
2022/05/10 10:21:51;;;;;;;13.10;8.48;;;;;;;;;;5005265;28;20045;-70
2022/05/10 10:24:24;;;;;;;14.52;8.60;;;;;;;;;;5010163;28;20050;-70
2022/05/10 10:26:54;;;;;;;10.68;8.50;;;;;;;;;;4992279;28;20129;-69
2022/05/10 10:29:36;;;;;;;11.43;8.52;;;;;;;;;;4992532;28;20050;-71
2022/05/10 10:32:15;;;;;;;11.90;7.35;;;;;;;;;;5006952;28;20046;-70
2022/05/10 10:34:54;;;;;;;10.60;8.15;;;;;;;;;;5000200;28;20589;-70
2022/05/10 10:37:26;;;;;;;9.90;7.95;;;;;;;;;;5005827;28;20507;-70
2022/05/10 10:40:30;;;;;;;11.20;7.97;;;;;;;;;;5009513;28;20539;-70
2022/05/10 10:43:09;;;;;;;10.52;8.13;;;;;;;;;;5004065;28;20045;-70
2022/05/10 10:45:42;;;;;;;10.15;8.05;;;;;;;;;;5007128;28;21330;-70
2022/05/10 10:48:23;;;;;;;13.82;8.90;;;;;;;;;;5000821;28;20045;-71
2022/05/10 10:50:48;;;;;;;12.50;9.10;;;;;;;;;;5007347;28;20041;-70
2022/05/10 10:53:14;;;;;;;9.60;8.00;;;;;;;;;;5007057;28;20030;-71
2022/05/10 10:55:47;;;;;;;9.25;7.93;;;;;;;;;;5008267;28;20050;-70
2022/05/10 10:58:32;;;;;;;10.77;7.65;;;;;;;;;;5007286;28;20037;-70
2022/05/10 11:01:22;;;;;;;10.02;7.30;;;;;;;;;;5008261;28;20104;-71
2022/05/10 11:04:45;;;;;;;11.65;7.43;;;;;;;;;;4993249;28;20046;-70
2022/05/10 11:07:26;;;;;;;9.85;7.45;;;;;;;;;;4985446;28;20034;-70
2022/05/10 11:09:59;;;;;;;12.68;7.80;;;;;;;;;;4989483;28;20249;-70
2022/05/10 11:12:44;;;;;;;10.93;7.55;;;;;;;;;;5007902;28;20040;-70
2022/05/10 11:15:43;;;;;;;9.45;7.57;;;;;;;;;;5006586;28;20041;-70
2022/05/10 11:18:34;;;;;;;9.95;7.25;;;;;;;;;;5010830;28;20038;-70
2022/05/10 11:21:11;;;;;;;10.85;7.95;;;;;;;;;;5008120;28;20470;-70
2022/05/10 11:23:36;;;;;;;13.75;7.47;;;;;;;;;;5008377;28;20030;-70
2022/05/10 11:26:39;;;;;;;11.30;8.07;;;;;;;;;;5005536;28;20041;-70
2022/05/10 11:29:19;;;;;;;11.68;7.88;;;;;;;;;;5000738;28;20038;-70
2022/05/10 11:31:53;;;;;;;16.13;7.18;;;;;;;;;;4999616;28;20049;-70
2022/05/10 11:34:35;;;;;;;11.38;6.90;;;;;;;;;;5003296;28;20046;-70
2022/05/10 11:37:03;;;;;;;8.30;7.45;;;;;;;;;;5007848;28;20050;-70
2022/05/10 11:39:56;;;;;;;13.00;7.57;;;;;;;;;;5005647;28;20041;-69
2022/05/10 11:43:09;;;;;;;9.93;7.63;;;;;;;;;;5005843;28;20057;-70
2022/05/10 11:45:52;;;;;;;9.18;7.50;;;;;;;;;;5007193;28;20111;-70
2022/05/10 11:48:22;;;;;;;;;;;;;;;;;;5000821;28;20039;-71
2022/05/10 11:54:17;;;;;;;13.02;8.45;;;;;;;;;;5008763;28;20100;-70
2022/05/10 11:56:44;;;;;;;10.63;8.13;;;;;;;;;;5004011;28;20034;-69
2022/05/10 11:59:32;;;;;;;12.05;8.45;;;;;;;;;;5007699;28;20037;-70
2022/05/10 12:01:59;;;;;;;9.45;7.93;;;;;;;;;;4996892;28;20038;-71
2022/05/10 12:04:44;;;;;;;12.95;8.13;;;;;;;;;;5007228;28;20125;-70
2022/05/10 12:07:19;;;;;;;12.40;8.02;;;;;;;;;;5004617;28;20046;-71
2022/05/10 12:09:56;;;;;;;12.88;7.28;;;;;;;;;;5006759;28;20133;-71
2022/05/10 12:12:31;;;;;;;11.70;7.50;;;;;;;;;;4999836;28;20046;-71
2022/05/10 12:23:59;;;;;;;11.35;7.90;;;;;;;;;;4999486;28;20069;-73
2022/05/10 12:26:47;;;;;;;11.93;8.15;;;;;;;;;;5008766;28;20041;-73
2022/05/10 12:29:37;;;;;;;9.65;7.72;;;;;;;;;;4999106;28;20096;-74
2022/05/10 12:32:08;;;;;;;8.93;7.30;;;;;;;;;;5005781;28;20872;-73
2022/05/10 12:34:45;;;;;;;10.88;6.93;;;;;;;;;;4988123;28;20423;-74
2022/05/10 12:37:24;;;;;;;23.05;6.68;;;;;;;;;;4991592;28;20066;-74
2022/05/10 12:40:00;;;;;;;7.53;5.80;;;;;;;;;;5002914;28;20061;-73
2022/05/10 12:42:44;;;;;;;14.05;6.28;;;;;;;;;;5007668;28;20128;-75
2022/05/10 12:45:48;;;;;;;10.68;5.95;;;;;;;;;;5007528;28;20121;-73
2022/05/10 12:49:08;;;;;;;8.77;6.50;;;;;;;;;;4987984;28;20054;-74
2022/05/10 12:51:52;;;;;;;10.88;6.13;;;;;;;;;;5000176;28;20045;-74
2022/05/10 12:54:35;;;;;;;8.10;5.65;;;;;;;;;;5006710;28;20100;-75
2022/05/10 12:57:09;;;;;;;7.88;6.10;;;;;;;;;;5006160;28;20040;-74
2022/05/10 12:59:50;;;;;;;11.23;5.90;;;;;;;;;;4998520;28;20034;-75
2022/05/10 13:02:16;;;;;;;9.90;5.97;;;;;;;;;;4990607;28;20050;-74
2022/05/10 13:04:50;;;;;;;10.30;5.70;;;;;;;;;;5007195;28;20136;-73
2022/05/10 13:07:51;;;;;;;8.25;5.30;;;;;;;;;;5007172;28;20683;-74
2022/05/10 13:10:20;;;;;;;10.18;5.65;;;;;;;;;;5006815;28;20053;-75
2022/05/10 13:12:54;;;;;;;8.77;5.30;;;;;;;;;;5001319;28;20125;-75
2022/05/10 13:15:20;;;;;;;;;;;;;;;;;;5001266;28;20121;-75
2022/05/10 13:17:48;;;;;;;7.60;5.75;;;;;;;;;;5000144;28;20027;-74
2022/05/10 13:20:17;;;;;;;11.82;5.55;;;;;;;;;;5002266;28;20113;-76
2022/05/10 13:23:00;;;;;;;9.25;5.93;;;;;;;;;;4989826;28;20037;-76
2022/05/10 13:25:29;;;;;;;7.47;5.55;;;;;;;;;;5003843;28;20038;-77
2022/05/10 13:28:25;;;;;;;8.02;4.97;;;;;;;;;;5006153;28;20236;-77
2022/05/10 13:31:01;;;;;;;7.88;5.70;;;;;;;;;;5020752;28;20112;-74
2022/05/10 13:33:32;;;;;;;21.55;5.95;;;;;;;;;;4992200;28;20529;-74
2022/05/10 13:36:05;;;;;;;7.68;5.05;;;;;;;;;;4990599;28;20113;-75
2022/05/10 13:38:37;;;;;;;10.93;6.03;;;;;;;;;;4996617;28;20042;-76
2022/05/10 13:41:09;;;;;;;7.70;5.43;;;;;;;;;;4999868;28;20131;-75
2022/05/10 13:43:54;;;;;;;7.80;5.30;;;;;;;;;;5010353;28;20522;-75
2022/05/10 13:46:22;;;;;;;7.43;5.13;;;;;;;;;;5008455;28;20057;-75
2022/05/10 13:48:59;;;;;;;11.55;5.43;;;;;;;;;;5010188;28;20065;-75
2022/05/10 13:51:34;;;;;;;7.57;4.75;;;;;;;;;;5007156;28;20602;-75
2022/05/10 13:54:04;;;;;;;7.13;4.43;;;;;;;;;;5005708;28;20034;-74
2022/05/10 13:56:39;;;;;;;8.50;4.43;;;;;;;;;;5002707;28;20033;-75
2022/05/10 13:59:05;;;;;;;6.95;4.28;;;;;;;;;;5002933;28;20041;-74
2022/05/10 14:01:42;;;;;;;6.40;4.25;;;;;;;;;;5009357;28;20515;-75
2022/05/10 14:04:10;;;;;;;8.43;4.15;;;;;;;;;;5008943;28;20107;-75
2022/05/10 14:06:45;;;;;;;7.65;3.67;;;;;;;;;;5010474;28;20040;-75
2022/05/10 14:09:13;;;;;;;9.73;3.67;;;;;;;;;;5010580;28;20510;-75
2022/05/10 14:11:42;;;;;;;5.90;3.15;;;;;;;;;;5008176;28;20042;-75
2022/05/10 14:14:14;;;;;;;4.40;2.58;;;;;;;;;;5001846;28;20060;-68
2022/05/10 14:16:41;;;;;;;6.38;2.70;;;;;;;;;;5004801;28;20099;-71
2022/05/10 14:19:21;;;;;;;5.28;2.65;;;;;;;;;;5003702;28;20030;-72
2022/05/10 14:21:50;;;;;;;12.75;3.03;;;;;;;;;;5002815;28;20404;-74
2022/05/10 14:24:16;;;;;;;10.35;3.17;;;;;;;;;;5003353;28;20079;-73
2022/05/10 14:26:51;;;;;;;3.47;2.33;;;;;;;;;;5005592;28;20049;-74
2022/05/10 14:29:43;;;;;;;4.47;2.20;;;;;;;;;;5005504;28;20125;-75
2022/05/10 14:32:11;;;;;;;4.13;2.70;;;;;;;;;;5003964;28;20030;-72
2022/05/10 14:34:55;;;;;;;4.53;2.75;;;;;;;;;;5023647;28;20030;-75
2022/05/10 14:37:36;;;;;;;;;;;;;;;;;;4999391;28;20046;-73
2022/05/10 14:40:17;;;;;;;12.75;2.65;;;;;;;;;;5002927;28;20548;-74
2022/05/10 14:43:02;;;;;;;9.10;2.58;;;;;;;;;;5001146;28;20104;-73
2022/05/10 14:45:34;;;;;;;5.13;2.50;;;;;;;;;;4998681;28;20117;-74
2022/05/10 14:48:00;;;;;;;4.03;2.72;;;;;;;;;;5008022;28;20053;-73
2022/05/10 14:50:43;;;;;;;7.55;3.10;;;;;;;;;;5010448;28;20026;-73
2022/05/10 14:53:14;;;;;;;5.90;2.75;;;;;;;;;;5005480;28;20038;-73
2022/05/10 14:55:42;;;;;;;4.65;2.67;;;;;;;;;;5005799;28;20046;-71
2022/05/10 14:58:11;;;;;;;5.60;2.75;;;;;;;;;;5003491;28;20650;-73
2022/05/10 15:00:44;;;;;;;5.20;3.00;;;;;;;;;;4996222;28;20034;-73
2022/05/10 15:03:16;;;;;;;;;;;;;;;;;;5000265;28;20033;-72
2022/05/10 15:05:42;;;;;;;3.35;2.42;;;;;;;;;;5009624;28;19910;-72
2022/05/10 15:08:08;;;;;;;4.90;2.80;;;;;;;;;;5006719;28;20195;-73
2022/05/10 15:10:35;;;;;;;4.47;2.75;;;;;;;;;;5000644;28;20172;-72
2022/05/10 15:13:04;;;;;;;8.55;2.90;;;;;;;;;;5016185;28;20520;-72
2022/05/10 15:15:32;;;;;;;7.53;3.00;;;;;;;;;;5020097;28;20414;-73
2022/05/10 15:20:42;;;;;;;4.85;2.97;;;;;;;;;;5008008;28;20156;-70
2022/05/10 15:23:08;;;;;;;4.45;3.08;;;;;;;;;;5005795;28;20700;-72
2022/05/10 15:25:33;;;;;;;11.63;3.85;;;;;;;;;;5004631;28;20510;-72
2022/05/10 15:27:59;;;;;;;5.70;3.60;;;;;;;;;;5007214;28;20068;-73
2022/05/10 15:30:25;;;;;;;6.95;3.38;;;;;;;;;;5006301;28;20609;-72
2022/05/10 15:32:50;;;;;;;4.93;3.20;;;;;;;;;;5007113;28;20109;-72